sensor_id;sensor_type;location;lat;lon;timestamp;P1;durP1;ratioP1;P2;durP2;ratioP2
40787;SDS011;26497;52.494;7.546;2023-04-05T00:02:18;9.77;;;5.80;;
40787;SDS011;26497;52.494;7.546;2023-04-05T00:04:46;16.23;;;6.72;;
40787;SDS011;26497;52.494;7.546;2023-04-05T00:07:17;9.63;;;6.93;;
40787;SDS011;26497;52.494;7.546;2023-04-05T00:09:45;22.50;;;8.05;;
40787;SDS011;26497;52.494;7.546;2023-04-05T00:12:13;11.23;;;6.07;;
40787;SDS011;26497;52.494;7.546;2023-04-05T00:14:41;15.55;;;6.75;;
40787;SDS011;26497;52.494;7.546;2023-04-05T00:17:08;13.65;;;5.97;;
40787;SDS011;26497;52.494;7.546;2023-04-05T00:19:35;9.88;;;6.55;;
40787;SDS011;26497;52.494;7.546;2023-04-05T00:22:03;11.52;;;6.82;;
40787;SDS011;26497;52.494;7.546;2023-04-05T00:24:35;13.93;;;6.15;;
40787;SDS011;26497;52.494;7.546;2023-04-05T00:27:05;14.85;;;7.47;;
40787;SDS011;26497;52.494;7.546;2023-04-05T00:29:33;13.95;;;7.22;;
40787;SDS011;26497;52.494;7.546;2023-04-05T00:32:00;23.85;;;8.68;;
40787;SDS011;26497;52.494;7.546;2023-04-05T00:34:27;16.02;;;8.65;;
40787;SDS011;26497;52.494;7.546;2023-04-05T00:36:54;21.20;;;7.65;;
40787;SDS011;26497;52.494;7.546;2023-04-05T00:39:21;13.13;;;7.35;;
40787;SDS011;26497;52.494;7.546;2023-04-05T00:41:49;20.85;;;7.65;;
40787;SDS011;26497;52.494;7.546;2023-04-05T00:44:16;15.77;;;7.20;;
40787;SDS011;26497;52.494;7.546;2023-04-05T00:46:43;11.57;;;7.65;;
40787;SDS011;26497;52.494;7.546;2023-04-05T00:49:10;10.48;;;6.88;;
40787;SDS011;26497;52.494;7.546;2023-04-05T00:51:38;12.45;;;7.85;;
40787;SDS011;26497;52.494;7.546;2023-04-05T00:54:06;14.38;;;7.80;;
40787;SDS011;26497;52.494;7.546;2023-04-05T00:56:33;17.38;;;8.45;;
40787;SDS011;26497;52.494;7.546;2023-04-05T00:59:02;19.80;;;9.68;;
40787;SDS011;26497;52.494;7.546;2023-04-05T01:01:29;17.98;;;10.48;;
40787;SDS011;26497;52.494;7.546;2023-04-05T01:04:02;26.85;;;9.30;;
40787;SDS011;26497;52.494;7.546;2023-04-05T01:06:35;15.02;;;7.85;;
40787;SDS011;26497;52.494;7.546;2023-04-05T01:09:35;20.33;;;7.70;;
40787;SDS011;26497;52.494;7.546;2023-04-05T01:12:11;15.57;;;8.05;;
40787;SDS011;26497;52.494;7.546;2023-04-05T01:14:46;16.52;;;8.55;;
40787;SDS011;26497;52.494;7.546;2023-04-05T01:17:16;13.55;;;8.98;;
40787;SDS011;26497;52.494;7.546;2023-04-05T01:19:46;18.13;;;8.90;;
40787;SDS011;26497;52.494;7.546;2023-04-05T01:29:20;18.33;;;8.48;;
40787;SDS011;26497;52.494;7.546;2023-04-05T01:35:20;20.55;;;10.18;;
40787;SDS011;26497;52.494;7.546;2023-04-05T01:37:54;16.02;;;9.65;;
40787;SDS011;26497;52.494;7.546;2023-04-05T01:40:27;18.23;;;10.88;;
40787;SDS011;26497;52.494;7.546;2023-04-05T01:42:56;25.92;;;9.63;;
40787;SDS011;26497;52.494;7.546;2023-04-05T01:45:27;18.40;;;10.77;;
40787;SDS011;26497;52.494;7.546;2023-04-05T01:47:55;37.17;;;11.95;;
40787;SDS011;26497;52.494;7.546;2023-04-05T01:50:22;18.52;;;9.70;;
40787;SDS011;26497;52.494;7.546;2023-04-05T01:52:49;25.55;;;11.43;;
40787;SDS011;26497;52.494;7.546;2023-04-05T01:55:16;22.98;;;10.82;;
40787;SDS011;26497;52.494;7.546;2023-04-05T01:57:43;19.48;;;11.18;;
40787;SDS011;26497;52.494;7.546;2023-04-05T02:00:11;25.88;;;12.30;;
40787;SDS011;26497;52.494;7.546;2023-04-05T02:02:40;26.45;;;14.98;;
40787;SDS011;26497;52.494;7.546;2023-04-05T02:05:07;32.50;;;20.15;;
40787;SDS011;26497;52.494;7.546;2023-04-05T02:07:34;28.05;;;16.23;;
40787;SDS011;26497;52.494;7.546;2023-04-05T02:10:01;27.13;;;12.73;;
40787;SDS011;26497;52.494;7.546;2023-04-05T02:12:29;21.90;;;13.57;;
40787;SDS011;26497;52.494;7.546;2023-04-05T02:14:56;22.60;;;13.80;;
40787;SDS011;26497;52.494;7.546;2023-04-05T02:17:23;22.80;;;13.20;;
40787;SDS011;26497;52.494;7.546;2023-04-05T02:19:51;23.17;;;12.90;;
40787;SDS011;26497;52.494;7.546;2023-04-05T02:22:26;21.38;;;12.25;;
40787;SDS011;26497;52.494;7.546;2023-04-05T02:24:53;30.33;;;12.45;;
40787;SDS011;26497;52.494;7.546;2023-04-05T02:27:20;27.48;;;14.45;;
40787;SDS011;26497;52.494;7.546;2023-04-05T02:29:47;41.33;;;20.48;;
40787;SDS011;26497;52.494;7.546;2023-04-05T02:32:15;43.33;;;23.77;;
40787;SDS011;26497;52.494;7.546;2023-04-05T02:34:42;48.38;;;21.15;;
40787;SDS011;26497;52.494;7.546;2023-04-05T02:37:11;31.50;;;17.67;;
40787;SDS011;26497;52.494;7.546;2023-04-05T02:39:38;47.20;;;19.48;;
40787;SDS011;26497;52.494;7.546;2023-04-05T02:42:05;41.88;;;18.52;;
40787;SDS011;26497;52.494;7.546;2023-04-05T02:44:32;34.13;;;17.45;;
40787;SDS011;26497;52.494;7.546;2023-04-05T02:46:59;29.88;;;16.50;;
40787;SDS011;26497;52.494;7.546;2023-04-05T02:49:26;22.75;;;13.98;;
40787;SDS011;26497;52.494;7.546;2023-04-05T02:51:53;24.90;;;14.50;;
40787;SDS011;26497;52.494;7.546;2023-04-05T02:54:22;24.50;;;13.85;;
40787;SDS011;26497;52.494;7.546;2023-04-05T02:56:49;31.38;;;14.25;;
40787;SDS011;26497;52.494;7.546;2023-04-05T02:59:18;34.08;;;17.58;;
40787;SDS011;26497;52.494;7.546;2023-04-05T03:01:45;38.00;;;19.67;;
40787;SDS011;26497;52.494;7.546;2023-04-05T03:04:12;33.50;;;18.58;;
40787;SDS011;26497;52.494;7.546;2023-04-05T03:06:41;35.55;;;15.48;;
40787;SDS011;26497;52.494;7.546;2023-04-05T03:09:10;26.00;;;13.45;;
40787;SDS011;26497;52.494;7.546;2023-04-05T03:11:39;22.00;;;13.45;;
40787;SDS011;26497;52.494;7.546;2023-04-05T03:14:06;21.05;;;10.75;;
40787;SDS011;26497;52.494;7.546;2023-04-05T03:16:33;27.42;;;11.93;;
40787;SDS011;26497;52.494;7.546;2023-04-05T03:19:00;20.75;;;12.35;;
40787;SDS011;26497;52.494;7.546;2023-04-05T03:21:29;19.02;;;10.45;;
40787;SDS011;26497;52.494;7.546;2023-04-05T03:23:57;31.38;;;13.75;;
40787;SDS011;26497;52.494;7.546;2023-04-05T03:26:25;20.52;;;11.40;;
40787;SDS011;26497;52.494;7.546;2023-04-05T03:28:53;19.00;;;12.10;;
40787;SDS011;26497;52.494;7.546;2023-04-05T03:31:20;23.83;;;12.75;;
40787;SDS011;26497;52.494;7.546;2023-04-05T03:33:47;26.55;;;11.88;;
40787;SDS011;26497;52.494;7.546;2023-04-05T03:36:14;27.67;;;13.32;;
40787;SDS011;26497;52.494;7.546;2023-04-05T03:38:43;26.42;;;12.48;;
40787;SDS011;26497;52.494;7.546;2023-04-05T03:41:10;35.03;;;14.27;;
40787;SDS011;26497;52.494;7.546;2023-04-05T03:43:37;27.35;;;14.73;;
40787;SDS011;26497;52.494;7.546;2023-04-05T03:46:06;34.97;;;14.93;;
40787;SDS011;26497;52.494;7.546;2023-04-05T03:48:33;29.50;;;15.48;;
40787;SDS011;26497;52.494;7.546;2023-04-05T03:51:00;30.42;;;16.98;;
40787;SDS011;26497;52.494;7.546;2023-04-05T03:53:27;29.95;;;17.15;;
40787;SDS011;26497;52.494;7.546;2023-04-05T03:55:54;39.60;;;19.23;;
40787;SDS011;26497;52.494;7.546;2023-04-05T03:58:21;37.55;;;20.00;;
40787;SDS011;26497;52.494;7.546;2023-04-05T04:00:50;37.08;;;17.33;;
40787;SDS011;26497;52.494;7.546;2023-04-05T04:03:18;37.33;;;18.13;;
40787;SDS011;26497;52.494;7.546;2023-04-05T04:05:45;36.15;;;17.52;;
40787;SDS011;26497;52.494;7.546;2023-04-05T04:08:13;29.95;;;16.90;;
40787;SDS011;26497;52.494;7.546;2023-04-05T04:10:40;33.95;;;18.48;;
40787;SDS011;26497;52.494;7.546;2023-04-05T04:13:07;27.85;;;16.42;;
40787;SDS011;26497;52.494;7.546;2023-04-05T04:15:34;29.70;;;15.82;;
40787;SDS011;26497;52.494;7.546;2023-04-05T04:18:01;32.83;;;16.23;;
40787;SDS011;26497;52.494;7.546;2023-04-05T04:20:29;33.05;;;17.85;;
40787;SDS011;26497;52.494;7.546;2023-04-05T04:22:56;35.28;;;19.23;;
40787;SDS011;26497;52.494;7.546;2023-04-05T04:25:23;43.25;;;17.98;;
40787;SDS011;26497;52.494;7.546;2023-04-05T04:27:55;39.58;;;20.50;;
40787;SDS011;26497;52.494;7.546;2023-04-05T04:30:22;36.72;;;20.27;;
40787;SDS011;26497;52.494;7.546;2023-04-05T04:32:49;35.75;;;18.10;;
40787;SDS011;26497;52.494;7.546;2023-04-05T04:35:17;35.25;;;17.73;;
40787;SDS011;26497;52.494;7.546;2023-04-05T04:37:51;30.55;;;16.27;;
40787;SDS011;26497;52.494;7.546;2023-04-05T04:40:22;28.45;;;15.35;;
40787;SDS011;26497;52.494;7.546;2023-04-05T04:42:50;33.03;;;17.23;;
40787;SDS011;26497;52.494;7.546;2023-04-05T04:45:18;31.38;;;15.70;;
40787;SDS011;26497;52.494;7.546;2023-04-05T04:47:46;29.00;;;16.40;;
40787;SDS011;26497;52.494;7.546;2023-04-05T04:52:46;36.90;;;14.00;;
40787;SDS011;26497;52.494;7.546;2023-04-05T04:55:14;35.88;;;16.00;;
40787;SDS011;26497;52.494;7.546;2023-04-05T04:57:41;32.90;;;16.42;;
40787;SDS011;26497;52.494;7.546;2023-04-05T05:00:09;30.70;;;15.70;;
40787;SDS011;26497;52.494;7.546;2023-04-05T05:02:39;41.80;;;18.15;;
40787;SDS011;26497;52.494;7.546;2023-04-05T05:05:08;36.60;;;16.83;;
40787;SDS011;26497;52.494;7.546;2023-04-05T05:07:37;44.63;;;19.38;;
40787;SDS011;26497;52.494;7.546;2023-04-05T05:10:05;43.58;;;19.30;;
40787;SDS011;26497;52.494;7.546;2023-04-05T05:12:36;40.30;;;19.45;;
40787;SDS011;26497;52.494;7.546;2023-04-05T05:15:03;40.17;;;18.30;;
40787;SDS011;26497;52.494;7.546;2023-04-05T05:17:32;40.83;;;19.70;;
40787;SDS011;26497;52.494;7.546;2023-04-05T05:19:59;49.53;;;22.40;;
40787;SDS011;26497;52.494;7.546;2023-04-05T05:22:28;48.20;;;23.00;;
40787;SDS011;26497;52.494;7.546;2023-04-05T05:24:55;54.10;;;21.48;;
40787;SDS011;26497;52.494;7.546;2023-04-05T05:27:22;47.13;;;21.90;;
40787;SDS011;26497;52.494;7.546;2023-04-05T05:29:51;44.20;;;22.63;;
40787;SDS011;26497;52.494;7.546;2023-04-05T05:32:18;43.35;;;22.10;;
40787;SDS011;26497;52.494;7.546;2023-04-05T05:34:47;61.28;;;26.77;;
40787;SDS011;26497;52.494;7.546;2023-04-05T05:37:14;59.03;;;29.75;;
40787;SDS011;26497;52.494;7.546;2023-04-05T05:39:41;58.92;;;31.45;;
40787;SDS011;26497;52.494;7.546;2023-04-05T05:42:09;50.05;;;28.38;;
40787;SDS011;26497;52.494;7.546;2023-04-05T05:44:36;51.50;;;24.45;;
40787;SDS011;26497;52.494;7.546;2023-04-05T05:47:05;41.63;;;21.90;;
40787;SDS011;26497;52.494;7.546;2023-04-05T05:49:32;49.63;;;21.23;;
40787;SDS011;26497;52.494;7.546;2023-04-05T05:51:59;46.55;;;21.08;;
40787;SDS011;26497;52.494;7.546;2023-04-05T05:54:26;53.47;;;21.55;;
40787;SDS011;26497;52.494;7.546;2023-04-05T05:56:53;52.38;;;24.52;;
40787;SDS011;26497;52.494;7.546;2023-04-05T05:59:21;55.20;;;23.67;;
40787;SDS011;26497;52.494;7.546;2023-04-05T06:01:47;52.83;;;23.65;;
40787;SDS011;26497;52.494;7.546;2023-04-05T06:04:16;53.10;;;26.10;;
40787;SDS011;26497;52.494;7.546;2023-04-05T06:06:44;54.58;;;26.17;;
40787;SDS011;26497;52.494;7.546;2023-04-05T06:09:12;58.53;;;25.48;;
40787;SDS011;26497;52.494;7.546;2023-04-05T06:11:39;50.42;;;23.77;;
40787;SDS011;26497;52.494;7.546;2023-04-05T06:14:06;46.95;;;24.05;;
40787;SDS011;26497;52.494;7.546;2023-04-05T06:16:33;42.25;;;22.13;;
40787;SDS011;26497;52.494;7.546;2023-04-05T06:19:00;37.40;;;21.17;;
40787;SDS011;26497;52.494;7.546;2023-04-05T06:21:28;36.58;;;19.23;;
40787;SDS011;26497;52.494;7.546;2023-04-05T06:23:56;25.20;;;14.02;;
40787;SDS011;26497;52.494;7.546;2023-04-05T06:26:23;21.05;;;11.73;;
40787;SDS011;26497;52.494;7.546;2023-04-05T06:28:54;16.10;;;8.98;;
40787;SDS011;26497;52.494;7.546;2023-04-05T06:31:24;13.50;;;7.80;;
40787;SDS011;26497;52.494;7.546;2023-04-05T06:33:55;13.65;;;7.63;;
40787;SDS011;26497;52.494;7.546;2023-04-05T06:36:22;17.63;;;6.88;;
40787;SDS011;26497;52.494;7.546;2023-04-05T06:38:52;16.75;;;6.75;;
40787;SDS011;26497;52.494;7.546;2023-04-05T06:41:19;14.77;;;7.20;;
40787;SDS011;26497;52.494;7.546;2023-04-05T06:43:46;10.40;;;5.38;;
40787;SDS011;26497;52.494;7.546;2023-04-05T06:46:12;6.72;;;5.63;;
40787;SDS011;26497;52.494;7.546;2023-04-05T06:48:39;7.85;;;4.65;;
40787;SDS011;26497;52.494;7.546;2023-04-05T06:51:08;10.30;;;5.82;;
40787;SDS011;26497;52.494;7.546;2023-04-05T06:53:35;10.35;;;5.43;;
40787;SDS011;26497;52.494;7.546;2023-04-05T06:56:03;7.30;;;5.05;;
40787;SDS011;26497;52.494;7.546;2023-04-05T06:58:31;6.03;;;4.75;;
40787;SDS011;26497;52.494;7.546;2023-04-05T07:00:58;5.05;;;4.30;;
40787;SDS011;26497;52.494;7.546;2023-04-05T07:03:26;6.03;;;4.43;;
40787;SDS011;26497;52.494;7.546;2023-04-05T07:05:54;6.57;;;5.07;;
40787;SDS011;26497;52.494;7.546;2023-04-05T07:08:23;16.38;;;5.10;;
40787;SDS011;26497;52.494;7.546;2023-04-05T07:10:51;6.53;;;4.80;;
40787;SDS011;26497;52.494;7.546;2023-04-05T07:13:20;8.10;;;4.30;;
40787;SDS011;26497;52.494;7.546;2023-04-05T07:15:48;10.40;;;4.88;;
40787;SDS011;26497;52.494;7.546;2023-04-05T07:18:16;8.52;;;5.30;;
40787;SDS011;26497;52.494;7.546;2023-04-05T07:20:45;7.95;;;4.55;;
40787;SDS011;26497;52.494;7.546;2023-04-05T07:23:13;5.80;;;4.78;;
40787;SDS011;26497;52.494;7.546;2023-04-05T07:25:40;8.40;;;4.40;;
40787;SDS011;26497;52.494;7.546;2023-04-05T07:28:07;8.70;;;4.65;;
40787;SDS011;26497;52.494;7.546;2023-04-05T07:30:36;4.97;;;4.47;;
40787;SDS011;26497;52.494;7.546;2023-04-05T07:33:03;5.68;;;4.32;;
40787;SDS011;26497;52.494;7.546;2023-04-05T07:35:30;10.18;;;4.13;;
40787;SDS011;26497;52.494;7.546;2023-04-05T07:37:57;5.55;;;4.63;;
40787;SDS011;26497;52.494;7.546;2023-04-05T07:40:24;5.60;;;3.70;;
40787;SDS011;26497;52.494;7.546;2023-04-05T07:42:51;9.38;;;4.57;;
40787;SDS011;26497;52.494;7.546;2023-04-05T07:45:19;6.93;;;4.18;;
40787;SDS011;26497;52.494;7.546;2023-04-05T07:47:47;5.35;;;3.90;;
40787;SDS011;26497;52.494;7.546;2023-04-05T07:50:14;7.55;;;4.22;;
40787;SDS011;26497;52.494;7.546;2023-04-05T07:52:41;4.28;;;3.85;;
40787;SDS011;26497;52.494;7.546;2023-04-05T07:55:08;8.38;;;3.70;;
40787;SDS011;26497;52.494;7.546;2023-04-05T07:57:36;14.77;;;3.65;;
40787;SDS011;26497;52.494;7.546;2023-04-05T08:00:03;6.30;;;3.90;;
40787;SDS011;26497;52.494;7.546;2023-04-05T08:02:36;8.27;;;3.67;;
40787;SDS011;26497;52.494;7.546;2023-04-05T08:05:04;6.22;;;4.13;;
40787;SDS011;26497;52.494;7.546;2023-04-05T08:07:32;5.30;;;3.28;;
40787;SDS011;26497;52.494;7.546;2023-04-05T08:09:59;5.05;;;3.30;;
40787;SDS011;26497;52.494;7.546;2023-04-05T08:12:26;5.22;;;3.40;;
40787;SDS011;26497;52.494;7.546;2023-04-05T08:14:53;3.75;;;3.30;;
40787;SDS011;26497;52.494;7.546;2023-04-05T08:17:20;8.68;;;3.55;;
40787;SDS011;26497;52.494;7.546;2023-04-05T08:19:47;6.65;;;3.28;;
40787;SDS011;26497;52.494;7.546;2023-04-05T08:22:17;5.05;;;3.10;;
40787;SDS011;26497;52.494;7.546;2023-04-05T08:24:45;4.00;;;3.42;;
40787;SDS011;26497;52.494;7.546;2023-04-05T08:27:12;10.48;;;2.55;;
40787;SDS011;26497;52.494;7.546;2023-04-05T08:29:39;4.40;;;2.78;;
40787;SDS011;26497;52.494;7.546;2023-04-05T08:32:05;4.95;;;2.90;;
40787;SDS011;26497;52.494;7.546;2023-04-05T08:34:33;4.40;;;2.80;;
40787;SDS011;26497;52.494;7.546;2023-04-05T08:37:00;6.60;;;2.03;;
40787;SDS011;26497;52.494;7.546;2023-04-05T08:39:28;5.55;;;2.83;;
40787;SDS011;26497;52.494;7.546;2023-04-05T08:41:58;2.45;;;1.55;;
40787;SDS011;26497;52.494;7.546;2023-04-05T08:44:29;3.03;;;2.38;;
40787;SDS011;26497;52.494;7.546;2023-04-05T08:46:57;9.05;;;1.83;;
40787;SDS011;26497;52.494;7.546;2023-04-05T08:49:24;3.72;;;2.20;;
40787;SDS011;26497;52.494;7.546;2023-04-05T08:51:52;3.65;;;1.90;;
40787;SDS011;26497;52.494;7.546;2023-04-05T08:54:20;5.78;;;1.90;;
40787;SDS011;26497;52.494;7.546;2023-04-05T08:56:48;2.63;;;1.65;;
40787;SDS011;26497;52.494;7.546;2023-04-05T08:59:18;2.90;;;1.35;;
40787;SDS011;26497;52.494;7.546;2023-04-05T09:01:45;3.53;;;1.23;;
40787;SDS011;26497;52.494;7.546;2023-04-05T09:04:17;3.78;;;1.38;;
40787;SDS011;26497;52.494;7.546;2023-04-05T09:06:47;4.72;;;1.45;;
40787;SDS011;26497;52.494;7.546;2023-04-05T09:09:16;1.85;;;1.48;;
40787;SDS011;26497;52.494;7.546;2023-04-05T09:11:46;2.13;;;1.60;;
40787;SDS011;26497;52.494;7.546;2023-04-05T09:14:15;2.53;;;1.60;;
40787;SDS011;26497;52.494;7.546;2023-04-05T09:16:42;2.38;;;1.35;;
40787;SDS011;26497;52.494;7.546;2023-04-05T09:19:09;4.00;;;1.92;;
40787;SDS011;26497;52.494;7.546;2023-04-05T09:24:28;2.33;;;1.60;;
40787;SDS011;26497;52.494;7.546;2023-04-05T09:27:04;1.90;;;1.70;;
40787;SDS011;26497;52.494;7.546;2023-04-05T09:29:34;2.60;;;1.77;;
40787;SDS011;26497;52.494;7.546;2023-04-05T09:32:01;1.95;;;1.50;;
40787;SDS011;26497;52.494;7.546;2023-04-05T09:34:29;2.65;;;1.40;;
40787;SDS011;26497;52.494;7.546;2023-04-05T09:36:58;7.13;;;1.73;;
40787;SDS011;26497;52.494;7.546;2023-04-05T09:39:29;3.92;;;2.28;;
40787;SDS011;26497;52.494;7.546;2023-04-05T09:42:05;2.03;;;1.45;;
40787;SDS011;26497;52.494;7.546;2023-04-05T09:44:50;6.22;;;1.95;;
40787;SDS011;26497;52.494;7.546;2023-04-05T09:47:19;1.85;;;1.42;;
40787;SDS011;26497;52.494;7.546;2023-04-05T09:49:49;2.28;;;1.70;;
40787;SDS011;26497;52.494;7.546;2023-04-05T09:52:19;2.03;;;1.38;;
40787;SDS011;26497;52.494;7.546;2023-04-05T09:54:48;2.97;;;1.40;;
40787;SDS011;26497;52.494;7.546;2023-04-05T09:57:18;2.85;;;1.63;;
40787;SDS011;26497;52.494;7.546;2023-04-05T09:59:45;1.50;;;1.20;;
40787;SDS011;26497;52.494;7.546;2023-04-05T10:02:12;2.80;;;1.33;;
40787;SDS011;26497;52.494;7.546;2023-04-05T10:04:41;3.42;;;1.55;;
40787;SDS011;26497;52.494;7.546;2023-04-05T10:07:10;2.35;;;1.38;;
40787;SDS011;26497;52.494;7.546;2023-04-05T10:09:40;1.33;;;1.17;;
40787;SDS011;26497;52.494;7.546;2023-04-05T10:12:09;3.13;;;1.83;;
40787;SDS011;26497;52.494;7.546;2023-04-05T10:14:42;1.20;;;1.10;;
40787;SDS011;26497;52.494;7.546;2023-04-05T10:17:11;1.45;;;1.25;;
40787;SDS011;26497;52.494;7.546;2023-04-05T10:19:54;2.75;;;1.45;;
40787;SDS011;26497;52.494;7.546;2023-04-05T10:22:32;6.70;;;1.60;;
40787;SDS011;26497;52.494;7.546;2023-04-05T10:25:20;10.90;;;2.58;;
40787;SDS011;26497;52.494;7.546;2023-04-05T10:27:53;3.70;;;1.70;;
40787;SDS011;26497;52.494;7.546;2023-04-05T10:30:31;1.40;;;1.30;;
40787;SDS011;26497;52.494;7.546;2023-04-05T10:33:12;3.08;;;1.65;;
40787;SDS011;26497;52.494;7.546;2023-04-05T10:35:53;1.50;;;1.23;;
40787;SDS011;26497;52.494;7.546;2023-04-05T10:38:28;1.92;;;1.08;;
40787;SDS011;26497;52.494;7.546;2023-04-05T10:43:30;5.22;;;1.30;;
40787;SDS011;26497;52.494;7.546;2023-04-05T10:46:00;14.02;;;2.40;;
40787;SDS011;26497;52.494;7.546;2023-04-05T10:48:36;3.17;;;1.42;;
40787;SDS011;26497;52.494;7.546;2023-04-05T10:51:13;4.40;;;1.52;;
40787;SDS011;26497;52.494;7.546;2023-04-05T10:53:41;2.33;;;1.40;;
40787;SDS011;26497;52.494;7.546;2023-04-05T10:56:09;2.03;;;1.45;;
40787;SDS011;26497;52.494;7.546;2023-04-05T10:58:37;3.75;;;1.20;;
40787;SDS011;26497;52.494;7.546;2023-04-05T11:01:07;8.27;;;1.35;;
40787;SDS011;26497;52.494;7.546;2023-04-05T11:03:44;4.45;;;1.65;;
40787;SDS011;26497;52.494;7.546;2023-04-05T11:06:20;3.55;;;1.65;;
40787;SDS011;26497;52.494;7.546;2023-04-05T11:08:51;4.88;;;1.30;;
40787;SDS011;26497;52.494;7.546;2023-04-05T11:11:21;1.88;;;1.17;;
40787;SDS011;26497;52.494;7.546;2023-04-05T11:13:52;2.47;;;1.40;;
40787;SDS011;26497;52.494;7.546;2023-04-05T11:16:23;4.55;;;1.40;;
40787;SDS011;26497;52.494;7.546;2023-04-05T11:19:05;3.38;;;2.40;;
40787;SDS011;26497;52.494;7.546;2023-04-05T11:21:32;2.90;;;1.65;;
40787;SDS011;26497;52.494;7.546;2023-04-05T11:24:00;2.53;;;1.92;;
40787;SDS011;26497;52.494;7.546;2023-04-05T11:32:19;2.33;;;1.70;;
40787;SDS011;26497;52.494;7.546;2023-04-05T11:34:57;4.35;;;1.42;;
40787;SDS011;26497;52.494;7.546;2023-04-05T11:40:23;1.83;;;1.60;;
40787;SDS011;26497;52.494;7.546;2023-04-05T11:42:58;4.90;;;1.88;;
40787;SDS011;26497;52.494;7.546;2023-04-05T11:45:30;2.40;;;1.50;;
40787;SDS011;26497;52.494;7.546;2023-04-05T11:47:59;3.88;;;1.95;;
40787;SDS011;26497;52.494;7.546;2023-04-05T11:50:30;2.90;;;2.60;;
40787;SDS011;26497;52.494;7.546;2023-04-05T11:53:06;2.30;;;1.95;;
40787;SDS011;26497;52.494;7.546;2023-04-05T11:55:38;3.15;;;1.90;;
40787;SDS011;26497;52.494;7.546;2023-04-05T11:58:10;3.20;;;2.38;;
40787;SDS011;26497;52.494;7.546;2023-04-05T12:00:39;2.83;;;2.20;;
40787;SDS011;26497;52.494;7.546;2023-04-05T12:03:10;3.97;;;2.60;;
40787;SDS011;26497;52.494;7.546;2023-04-05T12:05:45;6.80;;;2.55;;
40787;SDS011;26497;52.494;7.546;2023-04-05T12:08:13;6.53;;;2.80;;
40787;SDS011;26497;52.494;7.546;2023-04-05T12:10:40;3.90;;;2.58;;
40787;SDS011;26497;52.494;7.546;2023-04-05T12:13:07;3.53;;;2.50;;
40787;SDS011;26497;52.494;7.546;2023-04-05T12:15:36;2.97;;;2.25;;
40787;SDS011;26497;52.494;7.546;2023-04-05T12:18:04;3.47;;;2.45;;
40787;SDS011;26497;52.494;7.546;2023-04-05T12:20:40;3.20;;;2.92;;
40787;SDS011;26497;52.494;7.546;2023-04-05T12:23:08;8.35;;;3.28;;
40787;SDS011;26497;52.494;7.546;2023-04-05T12:25:35;3.40;;;1.98;;
40787;SDS011;26497;52.494;7.546;2023-04-05T12:28:04;3.67;;;2.35;;
40787;SDS011;26497;52.494;7.546;2023-04-05T12:30:33;4.78;;;2.72;;
40787;SDS011;26497;52.494;7.546;2023-04-05T12:33:08;3.35;;;2.88;;
40787;SDS011;26497;52.494;7.546;2023-04-05T12:35:36;6.68;;;2.85;;
40787;SDS011;26497;52.494;7.546;2023-04-05T12:38:04;3.83;;;2.60;;
40787;SDS011;26497;52.494;7.546;2023-04-05T12:40:33;3.72;;;2.85;;
40787;SDS011;26497;52.494;7.546;2023-04-05T12:43:02;4.30;;;2.70;;
40787;SDS011;26497;52.494;7.546;2023-04-05T12:45:30;5.28;;;2.80;;
40787;SDS011;26497;52.494;7.546;2023-04-05T12:48:06;4.63;;;2.58;;
40787;SDS011;26497;52.494;7.546;2023-04-05T12:50:40;2.92;;;2.55;;
40787;SDS011;26497;52.494;7.546;2023-04-05T12:53:08;4.88;;;2.85;;
40787;SDS011;26497;52.494;7.546;2023-04-05T12:55:47;3.80;;;3.50;;
40787;SDS011;26497;52.494;7.546;2023-04-05T12:58:15;5.93;;;3.15;;
40787;SDS011;26497;52.494;7.546;2023-04-05T13:00:43;5.35;;;3.10;;
40787;SDS011;26497;52.494;7.546;2023-04-05T13:03:14;2.85;;;2.55;;
40787;SDS011;26497;52.494;7.546;2023-04-05T13:05:45;4.07;;;3.67;;
40787;SDS011;26497;52.494;7.546;2023-04-05T13:08:13;4.22;;;2.95;;
40787;SDS011;26497;52.494;7.546;2023-04-05T13:10:42;3.63;;;2.95;;
40787;SDS011;26497;52.494;7.546;2023-04-05T13:13:10;5.82;;;3.50;;
40787;SDS011;26497;52.494;7.546;2023-04-05T13:15:37;3.28;;;2.97;;
40787;SDS011;26497;52.494;7.546;2023-04-05T13:18:04;2.42;;;2.22;;
40787;SDS011;26497;52.494;7.546;2023-04-05T13:20:32;4.60;;;2.60;;
40787;SDS011;26497;52.494;7.546;2023-04-05T13:23:01;4.07;;;2.90;;
40787;SDS011;26497;52.494;7.546;2023-04-05T13:25:34;3.17;;;2.63;;
40787;SDS011;26497;52.494;7.546;2023-04-05T13:28:01;5.35;;;2.65;;
40787;SDS011;26497;52.494;7.546;2023-04-05T13:30:28;3.08;;;2.50;;
40787;SDS011;26497;52.494;7.546;2023-04-05T13:32:56;3.85;;;2.22;;
40787;SDS011;26497;52.494;7.546;2023-04-05T13:35:23;4.57;;;2.42;;
40787;SDS011;26497;52.494;7.546;2023-04-05T13:37:50;2.55;;;2.35;;
40787;SDS011;26497;52.494;7.546;2023-04-05T13:40:18;3.80;;;2.65;;
40787;SDS011;26497;52.494;7.546;2023-04-05T13:42:45;4.10;;;3.15;;
40787;SDS011;26497;52.494;7.546;2023-04-05T13:45:13;4.40;;;2.95;;
40787;SDS011;26497;52.494;7.546;2023-04-05T13:47:40;5.53;;;3.08;;
40787;SDS011;26497;52.494;7.546;2023-04-05T13:50:07;3.55;;;3.22;;
40787;SDS011;26497;52.494;7.546;2023-04-05T13:52:35;3.60;;;3.30;;
40787;SDS011;26497;52.494;7.546;2023-04-05T13:55:02;3.83;;;3.53;;
40787;SDS011;26497;52.494;7.546;2023-04-05T13:57:31;5.57;;;3.30;;
40787;SDS011;26497;52.494;7.546;2023-04-05T13:59:58;3.00;;;2.75;;
40787;SDS011;26497;52.494;7.546;2023-04-05T14:02:25;3.80;;;3.00;;
40787;SDS011;26497;52.494;7.546;2023-04-05T14:04:53;4.68;;;3.50;;
40787;SDS011;26497;52.494;7.546;2023-04-05T14:07:20;5.68;;;2.83;;
40787;SDS011;26497;52.494;7.546;2023-04-05T14:09:48;3.90;;;3.50;;
40787;SDS011;26497;52.494;7.546;2023-04-05T14:12:15;5.05;;;3.55;;
40787;SDS011;26497;52.494;7.546;2023-04-05T14:14:44;6.40;;;3.13;;
40787;SDS011;26497;52.494;7.546;2023-04-05T14:17:11;7.00;;;3.90;;
40787;SDS011;26497;52.494;7.546;2023-04-05T14:19:38;3.05;;;2.60;;
40787;SDS011;26497;52.494;7.546;2023-04-05T14:22:05;3.58;;;3.33;;
40787;SDS011;26497;52.494;7.546;2023-04-05T14:24:32;3.78;;;3.17;;
40787;SDS011;26497;52.494;7.546;2023-04-05T14:26:59;4.05;;;3.33;;
40787;SDS011;26497;52.494;7.546;2023-04-05T14:29:26;3.75;;;3.45;;
40787;SDS011;26497;52.494;7.546;2023-04-05T14:31:55;6.10;;;4.10;;
40787;SDS011;26497;52.494;7.546;2023-04-05T14:34:22;4.63;;;3.47;;
40787;SDS011;26497;52.494;7.546;2023-04-05T14:36:49;5.13;;;3.60;;
40787;SDS011;26497;52.494;7.546;2023-04-05T14:39:16;5.13;;;3.55;;
40787;SDS011;26497;52.494;7.546;2023-04-05T14:41:43;3.38;;;3.08;;
40787;SDS011;26497;52.494;7.546;2023-04-05T14:44:14;3.28;;;3.03;;
40787;SDS011;26497;52.494;7.546;2023-04-05T14:46:41;3.67;;;3.13;;
40787;SDS011;26497;52.494;7.546;2023-04-05T14:49:09;6.65;;;3.50;;
40787;SDS011;26497;52.494;7.546;2023-04-05T14:51:36;3.83;;;3.30;;
40787;SDS011;26497;52.494;7.546;2023-04-05T14:54:04;4.32;;;3.83;;
40787;SDS011;26497;52.494;7.546;2023-04-05T14:56:31;5.13;;;3.83;;
40787;SDS011;26497;52.494;7.546;2023-04-05T14:58:59;3.47;;;3.15;;
40787;SDS011;26497;52.494;7.546;2023-04-05T15:01:26;4.95;;;3.33;;
40787;SDS011;26497;52.494;7.546;2023-04-05T15:03:54;3.75;;;3.42;;
40787;SDS011;26497;52.494;7.546;2023-04-05T15:06:22;6.05;;;3.95;;
40787;SDS011;26497;52.494;7.546;2023-04-05T15:08:50;5.30;;;3.70;;
40787;SDS011;26497;52.494;7.546;2023-04-05T15:11:17;7.90;;;3.95;;
40787;SDS011;26497;52.494;7.546;2023-04-05T15:13:45;5.60;;;3.90;;
40787;SDS011;26497;52.494;7.546;2023-04-05T15:16:12;5.00;;;3.42;;